Time;durP1;ratioP1;P1;durP2;ratioP2;P2;SDS_P1;SDS_P2;PMS_P1;PMS_P2;Temp;Humidity;BMP_temperature;BMP_pressure;BME280_temperature;BME280_humidity;BME280_pressure;Samples;Min_cycle;Max_cycle;Signal;HPM_P1;HPM_P2
2022/06/20 00:00:16;;;;;;;6.97;2.07;;;;;;;;;;525268;28;1582;-84
2022/06/20 00:00:32;;;;;;;7.53;2.20;;;;;;;;;;526776;28;1464;-83
2022/06/20 00:00:48;;;;;;;7.95;2.20;;;;;;;;;;528866;27;1380;-83
2022/06/20 00:01:04;;;;;;;7.13;2.10;;;;;;;;;;526838;28;1487;-84
2022/06/20 00:01:20;;;;;;;6.35;2.20;;;;;;;;;;524649;28;1347;-83
2022/06/20 00:01:36;;;;;;;7.47;2.30;;;;;;;;;;527431;28;1448;-83
2022/06/20 00:01:52;;;;;;;8.97;2.40;;;;;;;;;;524566;28;1519;-83
2022/06/20 00:02:25;;;;;;;8.40;2.47;;;;;;;;;;523386;28;1378;-83
2022/06/20 00:02:53;;;;;;;6.17;2.10;;;;;;;;;;521931;28;1378;-84
2022/06/20 00:03:21;;;;;;;7.63;2.00;;;;;;;;;;522037;28;1521;-84
2022/06/20 00:03:41;;;;;;;7.57;1.95;;;;;;;;;;521685;28;1414;-84
2022/06/20 00:03:56;;;;;;;8.13;2.10;;;;;;;;;;524497;28;1477;-84
2022/06/20 00:04:18;;;;;;;7.93;2.03;;;;;;;;;;524356;28;1413;-84
2022/06/20 00:04:33;;;;;;;6.60;1.90;;;;;;;;;;524744;28;1445;-84
2022/06/20 00:04:51;;;;;;;6.60;2.20;;;;;;;;;;524104;28;1666;-83
2022/06/20 00:05:06;;;;;;;8.60;2.30;;;;;;;;;;524327;28;1448;-84
2022/06/20 00:05:32;;;;;;;9.25;2.22;;;;;;;;;;524380;28;1367;-83
2022/06/20 00:05:47;;;;;;;7.63;2.28;;;;;;;;;;523880;28;1629;-83
2022/06/20 00:06:03;;;;;;;7.20;2.40;;;;;;;;;;524877;28;1425;-83
2022/06/20 00:06:21;;;;;;;7.53;2.25;;;;;;;;;;524773;28;1595;-83
2022/06/20 00:06:38;;;;;;;6.15;1.80;;;;;;;;;;523619;28;1714;-84
2022/06/20 00:06:53;;;;;;;5.85;1.80;;;;;;;;;;522148;28;1446;-83
2022/06/20 00:07:11;;;;;;;6.83;1.97;;;;;;;;;;520365;28;1809;-83
2022/06/20 00:07:27;;;;;;;6.65;2.08;;;;;;;;;;523141;28;1457;-83
2022/06/20 00:07:42;;;;;;;6.78;2.30;;;;;;;;;;524424;28;1300;-84
2022/06/20 00:07:58;;;;;;;7.53;2.30;;;;;;;;;;523238;28;1627;-83
2022/06/20 00:08:13;;;;;;;7.82;2.20;;;;;;;;;;525446;28;1535;-83
2022/06/20 00:08:29;;;;;;;8.33;2.23;;;;;;;;;;525167;28;1465;-83
2022/06/20 00:08:45;;;;;;;8.52;2.17;;;;;;;;;;524707;28;1462;-83
2022/06/20 00:09:00;;;;;;;6.60;2.00;;;;;;;;;;525245;28;1405;-84
2022/06/20 00:09:16;;;;;;;6.40;1.97;;;;;;;;;;526017;28;1552;-83
2022/06/20 00:09:31;;;;;;;6.53;1.92;;;;;;;;;;527318;28;1447;-83
2022/06/20 00:09:48;;;;;;;6.87;2.00;;;;;;;;;;524307;28;1428;-83
2022/06/20 00:10:03;;;;;;;7.22;2.10;;;;;;;;;;523378;28;1540;-84
2022/06/20 00:10:21;;;;;;;6.17;2.00;;;;;;;;;;522183;28;1481;-83
2022/06/20 00:10:39;;;;;;;6.32;2.10;;;;;;;;;;520354;28;1526;-84
2022/06/20 00:10:55;;;;;;;6.40;2.13;;;;;;;;;;521606;28;1443;-83
2022/06/20 00:11:16;;;;;;;6.95;2.13;;;;;;;;;;522426;28;1309;-84
2022/06/20 00:11:38;;;;;;;7.13;1.88;;;;;;;;;;520345;28;1586;-83
2022/06/20 00:11:53;;;;;;;10.02;2.22;;;;;;;;;;520501;28;1536;-83
2022/06/20 00:12:22;;;;;;;10.40;2.27;;;;;;;;;;521194;28;1489;-84
2022/06/20 00:12:38;;;;;;;6.30;1.88;;;;;;;;;;518603;28;1315;-83
2022/06/20 00:12:55;;;;;;;6.88;2.10;;;;;;;;;;520475;28;1326;-83
2022/06/20 00:13:20;;;;;;;7.43;2.20;;;;;;;;;;522591;28;1415;-83
2022/06/20 00:13:39;;;;;;;6.50;2.10;;;;;;;;;;522281;28;1512;-83
2022/06/20 00:13:55;;;;;;;6.45;1.90;;;;;;;;;;525044;28;1562;-83
2022/06/20 00:14:14;;;;;;;8.18;2.10;;;;;;;;;;525168;28;1521;-83
2022/06/20 00:14:30;;;;;;;8.73;2.03;;;;;;;;;;525800;28;1279;-83
2022/06/20 00:14:47;;;;;;;6.85;2.08;;;;;;;;;;523881;28;1471;-83
2022/06/20 00:15:04;;;;;;;7.20;2.17;;;;;;;;;;521583;28;1584;-84
2022/06/20 00:15:48;;;;;;;8.55;2.10;;;;;;;;;;523025;28;1899;-84
2022/06/20 00:16:04;;;;;;;8.00;2.13;;;;;;;;;;521092;28;1413;-83
2022/06/20 00:16:20;;;;;;;6.35;1.88;;;;;;;;;;523397;28;1349;-83
2022/06/20 00:16:35;;;;;;;5.97;1.90;;;;;;;;;;523163;28;1656;-83
2022/06/20 00:16:51;;;;;;;7.40;2.07;;;;;;;;;;522461;28;1371;-83
2022/06/20 00:17:12;;;;;;;8.10;2.10;;;;;;;;;;520301;28;1560;-84
2022/06/20 00:17:27;;;;;;;7.25;1.98;;;;;;;;;;520400;28;1409;-84
2022/06/20 00:17:43;;;;;;;6.00;1.90;;;;;;;;;;520213;28;1571;-84
2022/06/20 00:18:00;;;;;;;7.45;2.10;;;;;;;;;;522246;28;1308;-83
2022/06/20 00:18:15;;;;;;;8.85;2.20;;;;;;;;;;522321;28;1569;-84
2022/06/20 00:18:31;;;;;;;8.60;2.20;;;;;;;;;;523596;28;1628;-84
2022/06/20 00:18:47;;;;;;;6.88;1.90;;;;;;;;;;524939;28;1544;-84
2022/06/20 00:19:03;;;;;;;6.07;1.92;;;;;;;;;;524881;28;1536;-83
2022/06/20 00:19:19;;;;;;;8.30;2.10;;;;;;;;;;524413;28;1442;-83
2022/06/20 00:19:34;;;;;;;8.27;1.90;;;;;;;;;;521852;28;1517;-84
2022/06/20 00:19:49;;;;;;;6.97;2.08;;;;;;;;;;520482;28;1670;-83
2022/06/20 00:20:05;;;;;;;7.03;2.30;;;;;;;;;;519249;28;1498;-83
2022/06/20 00:20:21;;;;;;;7.38;2.25;;;;;;;;;;518712;28;1478;-84
2022/06/20 00:20:37;;;;;;;7.60;2.20;;;;;;;;;;521757;28;1469;-84
2022/06/20 00:20:52;;;;;;;7.80;2.10;;;;;;;;;;520175;28;1326;-83
2022/06/20 00:21:21;;;;;;;7.82;2.00;;;;;;;;;;520243;28;1433;-84
2022/06/20 00:21:38;;;;;;;7.65;2.08;;;;;;;;;;522196;28;1584;-84
2022/06/20 00:21:53;;;;;;;7.25;2.10;;;;;;;;;;524447;28;1362;-84
2022/06/20 00:22:10;;;;;;;6.93;2.20;;;;;;;;;;524881;28;1817;-83
2022/06/20 00:22:27;;;;;;;7.40;2.00;;;;;;;;;;522097;28;1571;-84
2022/06/20 00:22:43;;;;;;;7.22;1.98;;;;;;;;;;521768;28;1547;-84
2022/06/20 00:22:58;;;;;;;7.30;2.13;;;;;;;;;;519893;28;1482;-83
2022/06/20 00:23:13;;;;;;;6.87;2.00;;;;;;;;;;520574;28;1347;-83
2022/06/20 00:23:29;;;;;;;6.67;2.00;;;;;;;;;;520655;28;1566;-83
2022/06/20 00:23:45;;;;;;;8.43;2.38;;;;;;;;;;521589;28;1354;-83
2022/06/20 00:24:00;;;;;;;8.13;2.33;;;;;;;;;;521914;28;1417;-84
2022/06/20 00:24:16;;;;;;;8.25;2.25;;;;;;;;;;523399;28;1377;-84
2022/06/20 00:24:31;;;;;;;8.32;2.30;;;;;;;;;;525348;28;1342;-83
2022/06/20 00:24:47;;;;;;;7.33;2.30;;;;;;;;;;525343;28;1575;-83
2022/06/20 00:25:03;;;;;;;7.70;2.20;;;;;;;;;;524314;28;1819;-84
2022/06/20 00:25:19;;;;;;;7.17;2.10;;;;;;;;;;522962;28;1415;-83
2022/06/20 00:25:36;;;;;;;7.03;2.00;;;;;;;;;;522727;28;1365;-84
2022/06/20 00:25:52;;;;;;;6.35;2.00;;;;;;;;;;523777;28;1507;-83
2022/06/20 00:26:08;;;;;;;6.57;1.97;;;;;;;;;;524300;28;1456;-83
2022/06/20 00:26:23;;;;;;;7.72;2.05;;;;;;;;;;523326;28;1287;-83
2022/06/20 00:26:39;;;;;;;8.03;2.00;;;;;;;;;;523833;28;1607;-83
2022/06/20 00:26:54;;;;;;;8.23;2.10;;;;;;;;;;522822;28;1615;-84
2022/06/20 00:27:10;;;;;;;8.07;2.30;;;;;;;;;;523495;28;1528;-84
2022/06/20 00:27:27;;;;;;;7.28;2.13;;;;;;;;;;525043;28;1408;-83
2022/06/20 00:27:45;;;;;;;6.22;2.00;;;;;;;;;;524962;28;1705;-83
2022/06/20 00:28:01;;;;;;;6.40;2.10;;;;;;;;;;524532;28;1586;-83
2022/06/20 00:28:17;;;;;;;5.78;1.88;;;;;;;;;;525446;28;1824;-84
2022/06/20 00:28:32;;;;;;;5.90;1.80;;;;;;;;;;525632;28;1619;-84
2022/06/20 00:28:48;;;;;;;7.80;2.00;;;;;;;;;;526282;28;1383;-83
2022/06/20 00:29:07;;;;;;;8.90;2.20;;;;;;;;;;524000;28;1495;-83
2022/06/20 00:29:23;;;;;;;7.93;1.92;;;;;;;;;;525330;28;1432;-83
2022/06/20 00:29:41;;;;;;;7.32;2.10;;;;;;;;;;524303;28;1438;-83
2022/06/20 00:29:56;;;;;;;9.45;2.30;;;;;;;;;;525063;28;1388;-83
2022/06/20 00:30:14;;;;;;;10.27;2.10;;;;;;;;;;522294;28;1635;-84
2022/06/20 00:30:29;;;;;;;8.95;2.05;;;;;;;;;;524089;28;1599;-83
2022/06/20 00:30:45;;;;;;;8.50;1.97;;;;;;;;;;524709;28;1384;-84
2022/06/20 00:31:01;;;;;;;6.93;1.95;;;;;;;;;;524931;28;1373;-83
2022/06/20 00:31:16;;;;;;;5.57;2.00;;;;;;;;;;525850;28;1417;-84
2022/06/20 00:31:32;;;;;;;5.95;1.90;;;;;;;;;;525845;28;1412;-83
2022/06/20 00:31:47;;;;;;;6.85;2.00;;;;;;;;;;525958;28;1487;-84
2022/06/20 00:32:08;;;;;;;6.67;2.00;;;;;;;;;;526152;28;1534;-84
2022/06/20 00:32:23;;;;;;;5.85;2.10;;;;;;;;;;525172;28;1375;-84
2022/06/20 00:32:39;;;;;;;6.70;2.10;;;;;;;;;;525035;28;1480;-84
2022/06/20 00:32:55;;;;;;;6.95;2.00;;;;;;;;;;523973;28;1544;-84
2022/06/20 00:33:10;;;;;;;7.27;2.00;;;;;;;;;;524041;28;1354;-84
2022/06/20 00:33:26;;;;;;;6.53;1.92;;;;;;;;;;527761;28;1371;-83
2022/06/20 00:33:42;;;;;;;6.30;1.95;;;;;;;;;;525889;28;1642;-84
2022/06/20 00:33:57;;;;;;;7.30;2.20;;;;;;;;;;524470;28;1408;-84
2022/06/20 00:34:13;;;;;;;8.93;2.30;;;;;;;;;;524883;28;1635;-84
2022/06/20 00:34:28;;;;;;;9.18;2.20;;;;;;;;;;525353;28;1345;-84
2022/06/20 00:34:44;;;;;;;7.33;2.03;;;;;;;;;;522644;28;1616;-83
2022/06/20 00:35:00;;;;;;;7.35;1.92;;;;;;;;;;520724;28;1659;-84
2022/06/20 00:35:16;;;;;;;7.90;2.00;;;;;;;;;;520081;28;1973;-83
2022/06/20 00:35:33;;;;;;;6.95;1.98;;;;;;;;;;520782;28;1757;-83
2022/06/20 00:35:49;;;;;;;6.90;1.90;;;;;;;;;;522583;28;1497;-84
2022/06/20 00:36:05;;;;;;;7.55;1.92;;;;;;;;;;521548;28;1657;-83
2022/06/20 00:36:20;;;;;;;9.45;2.10;;;;;;;;;;522777;28;1408;-84
2022/06/20 00:36:36;;;;;;;8.40;2.07;;;;;;;;;;525277;28;1414;-83
2022/06/20 00:36:51;;;;;;;5.70;1.97;;;;;;;;;;522245;28;1539;-83
2022/06/20 00:37:18;;;;;;;7.35;2.10;;;;;;;;;;522688;28;1403;-84
2022/06/20 00:37:35;;;;;;;6.97;2.10;;;;;;;;;;525548;28;1519;-84
2022/06/20 00:37:54;;;;;;;6.38;2.00;;;;;;;;;;523222;28;1410;-83
2022/06/20 00:38:17;;;;;;;8.23;2.20;;;;;;;;;;519599;28;1674;-83
2022/06/20 00:38:35;;;;;;;7.03;2.10;;;;;;;;;;519645;28;1678;-83
2022/06/20 00:38:54;;;;;;;6.28;1.83;;;;;;;;;;519409;28;1719;-83
2022/06/20 00:39:09;;;;;;;7.55;1.90;;;;;;;;;;522754;28;1693;-83
2022/06/20 00:39:25;;;;;;;8.15;2.08;;;;;;;;;;520747;28;1278;-83
2022/06/20 00:39:41;;;;;;;8.00;2.30;;;;;;;;;;522723;28;1260;-83
2022/06/20 00:39:57;;;;;;;6.90;2.22;;;;;;;;;;522661;28;1614;-84
2022/06/20 00:40:25;;;;;;;7.05;2.17;;;;;;;;;;525213;28;1381;-83
2022/06/20 00:40:47;;;;;;;7.95;2.20;;;;;;;;;;522701;28;1475;-84
2022/06/20 00:41:09;;;;;;;7.38;2.10;;;;;;;;;;522196;28;1459;-83
2022/06/20 00:41:32;;;;;;;7.15;2.00;;;;;;;;;;520152;28;1594;-84
2022/06/20 00:41:48;;;;;;;8.30;2.20;;;;;;;;;;520433;28;1317;-83
2022/06/20 00:42:04;;;;;;;7.38;2.13;;;;;;;;;;523616;28;1414;-83
2022/06/20 00:42:19;;;;;;;5.97;2.03;;;;;;;;;;523453;28;1448;-83
2022/06/20 00:42:35;;;;;;;6.80;2.13;;;;;;;;;;525302;28;1542;-83
2022/06/20 00:42:51;;;;;;;8.47;2.20;;;;;;;;;;522437;28;1431;-83
2022/06/20 00:43:11;;;;;;;10.25;2.20;;;;;;;;;;522068;28;1490;-83
2022/06/20 00:43:40;;;;;;;8.43;2.60;;;;;;;;;;523269;28;1517;-84
2022/06/20 00:43:56;;;;;;;7.50;2.03;;;;;;;;;;522160;28;1533;-83
2022/06/20 00:44:16;;;;;;;8.35;2.10;;;;;;;;;;523302;28;1320;-84
2022/06/20 00:44:36;;;;;;;9.07;2.20;;;;;;;;;;523732;28;1022;-83
2022/06/20 00:44:56;;;;;;;11.20;2.20;;;;;;;;;;521578;28;1452;-84
2022/06/20 00:45:13;;;;;;;13.68;2.38;;;;;;;;;;524018;28;1357;-83
2022/06/20 00:45:33;;;;;;;13.70;2.65;;;;;;;;;;522648;28;1413;-84
2022/06/20 00:45:52;;;;;;;12.48;2.78;;;;;;;;;;522400;28;1440;-84
2022/06/20 00:46:12;;;;;;;16.10;3.05;;;;;;;;;;521955;28;1546;-84
2022/06/20 00:46:30;;;;;;;12.10;2.60;;;;;;;;;;521524;28;1383;-84
2022/06/20 00:46:51;;;;;;;17.73;2.63;;;;;;;;;;521419;28;1556;-83
2022/06/20 00:47:12;;;;;;;23.02;3.45;;;;;;;;;;522399;28;1258;-83
2022/06/20 00:47:31;;;;;;;19.00;3.58;;;;;;;;;;524327;28;1315;-84
2022/06/20 00:47:48;;;;;;;15.52;2.75;;;;;;;;;;524105;28;1493;-84
2022/06/20 00:48:10;;;;;;;18.63;3.05;;;;;;;;;;526527;28;1432;-84
2022/06/20 00:48:33;;;;;;;18.35;3.50;;;;;;;;;;524623;28;1488;-83
2022/06/20 00:48:54;;;;;;;13.25;3.00;;;;;;;;;;524588;28;1274;-83
2022/06/20 00:49:44;;;;;;;10.15;2.65;;;;;;;;;;524651;28;1685;-84
2022/06/20 00:50:19;;;;;;;10.90;3.20;;;;;;;;;;518250;28;1411;-83
2022/06/20 00:50:34;;;;;;;11.82;3.10;;;;;;;;;;528954;27;1559;-83
2022/06/20 00:50:57;;;;;;;11.67;3.07;;;;;;;;;;529069;27;1501;-83
2022/06/20 00:51:26;;;;;;;9.60;3.07;;;;;;;;;;528386;27;1565;-83
2022/06/20 00:51:56;;;;;;;11.57;3.00;;;;;;;;;;526841;28;1440;-83
2022/06/20 00:52:14;;;;;;;11.30;3.20;;;;;;;;;;524404;28;1488;-83
2022/06/20 00:52:39;;;;;;;13.02;3.35;;;;;;;;;;525518;28;1590;-84
2022/06/20 00:53:10;;;;;;;12.10;3.47;;;;;;;;;;526143;28;1342;-83
2022/06/20 00:53:40;;;;;;;9.23;3.22;;;;;;;;;;526403;28;1401;-84
2022/06/20 00:54:11;;;;;;;12.30;3.70;;;;;;;;;;526199;28;1543;-83
2022/06/20 00:54:34;;;;;;;10.45;3.60;;;;;;;;;;526647;28;1431;-83
2022/06/20 00:55:18;;;;;;;13.13;3.88;;;;;;;;;;526012;28;1508;-83
2022/06/20 00:55:49;;;;;;;12.07;4.10;;;;;;;;;;522612;28;1362;-84
2022/06/20 00:56:21;;;;;;;11.15;4.43;;;;;;;;;;521994;28;1602;-83
2022/06/20 00:57:00;;;;;;;13.40;5.15;;;;;;;;;;525349;28;1431;-84
2022/06/20 00:57:27;;;;;;;13.85;6.43;;;;;;;;;;526661;28;1636;-83
2022/06/20 00:58:21;;;;;;;12.35;6.30;;;;;;;;;;528744;27;1686;-83
2022/06/20 00:58:52;;;;;;;12.90;6.50;;;;;;;;;;528315;27;1703;-83
2022/06/20 00:59:12;;;;;;;12.15;6.50;;;;;;;;;;527844;28;1333;-83
2022/06/20 00:59:34;;;;;;;12.50;6.50;;;;;;;;;;526246;28;1490;-84
2022/06/20 00:59:55;;;;;;;15.00;7.80;;;;;;;;;;526713;28;1663;-83
2022/06/20 01:00:18;;;;;;;14.13;8.13;;;;;;;;;;527004;28;1361;-83
2022/06/20 01:00:37;;;;;;;13.60;8.40;;;;;;;;;;526314;28;5115;-83
2022/06/20 01:00:54;;;;;;;15.50;9.25;;;;;;;;;;527447;28;1486;-83
2022/06/20 01:01:17;;;;;;;16.08;9.32;;;;;;;;;;523384;28;1769;-83
2022/06/20 01:01:37;;;;;;;13.05;9.10;;;;;;;;;;524972;28;1333;-83
2022/06/20 01:01:53;;;;;;;14.57;9.10;;;;;;;;;;520793;28;1529;-83
2022/06/20 01:02:12;;;;;;;15.98;9.63;;;;;;;;;;523230;28;1754;-83
2022/06/20 01:02:44;;;;;;;17.27;11.25;;;;;;;;;;525293;28;1429;-84
2022/06/20 01:03:11;;;;;;;19.20;12.70;;;;;;;;;;524608;28;1574;-84
2022/06/20 01:03:32;;;;;;;25.92;15.07;;;;;;;;;;523406;28;1545;-84
2022/06/20 01:03:53;;;;;;;30.05;16.40;;;;;;;;;;524275;28;1334;-87
2022/06/20 01:04:31;;;;;;;35.58;17.10;;;;;;;;;;524125;28;1340;-89
2022/06/20 01:05:05;;;;;;;39.20;20.13;;;;;;;;;;522725;28;1597;-89
2022/06/20 01:05:29;;;;;;;42.08;20.23;;;;;;;;;;522634;28;1422;-89
2022/06/20 01:05:56;;;;;;;31.98;18.52;;;;;;;;;;523434;28;1261;-88
2022/06/20 01:06:19;;;;;;;27.55;17.40;;;;;;;;;;526185;28;1594;-89
2022/06/20 01:06:39;;;;;;;27.27;17.13;;;;;;;;;;524762;28;1576;-88
2022/06/20 01:06:56;;;;;;;25.40;16.95;;;;;;;;;;523509;28;1453;-88
2022/06/20 01:07:18;;;;;;;26.35;17.70;;;;;;;;;;522556;28;1826;-87
2022/06/20 01:07:53;;;;;;;28.13;18.43;;;;;;;;;;522320;28;1583;-87
2022/06/20 01:08:22;;;;;;;29.65;19.00;;;;;;;;;;522580;28;1614;-87
2022/06/20 01:08:45;;;;;;;28.45;19.08;;;;;;;;;;521305;28;1586;-86
2022/06/20 01:09:06;;;;;;;28.98;18.88;;;;;;;;;;520380;28;1235;-86
2022/06/20 01:09:29;;;;;;;29.38;19.42;;;;;;;;;;522740;28;1114;-86
2022/06/20 01:09:48;;;;;;;29.13;18.65;;;;;;;;;;522469;28;904;-85
2022/06/20 01:10:04;;;;;;;26.13;18.17;;;;;;;;;;521511;28;1348;-85
2022/06/20 01:10:21;;;;;;;28.03;18.07;;;;;;;;;;521787;28;1385;-86
2022/06/20 01:10:45;;;;;;;26.55;17.80;;;;;;;;;;524176;28;1337;-86
2022/06/20 01:11:11;;;;;;;28.83;18.10;;;;;;;;;;523510;28;5120;-87
2022/06/20 01:11:34;;;;;;;35.35;18.08;;;;;;;;;;522518;28;1527;-88
2022/06/20 01:11:57;;;;;;;40.45;18.33;;;;;;;;;;523430;28;1376;-91
2022/06/20 01:12:15;;;;;;;43.42;19.40;;;;;;;;;;524463;28;1361;-90
2022/06/20 01:12:37;;;;;;;46.30;19.45;;;;;;;;;;525137;28;1614;-91
2022/06/20 01:13:02;;;;;;;45.55;18.63;;;;;;;;;;524050;28;1393;-90
2022/06/20 01:13:20;;;;;;;34.92;18.08;;;;;;;;;;524320;28;1290;-91
2022/06/20 01:13:36;;;;;;;34.53;17.80;;;;;;;;;;524810;28;1558;-90
2022/06/20 01:13:52;;;;;;;35.17;18.05;;;;;;;;;;524282;28;1603;-90
2022/06/20 01:14:35;;;;;;;34.20;18.02;;;;;;;;;;524389;28;1415;-90
2022/06/20 01:14:50;;;;;;;35.03;18.67;;;;;;;;;;523842;28;896;-91
2022/06/20 01:15:21;;;;;;;31.15;18.08;;;;;;;;;;522304;28;1200;-91
2022/06/20 01:15:40;;;;;;;30.40;17.30;;;;;;;;;;524225;28;1444;-92
2022/06/20 01:16:00;;;;;;;28.98;16.67;;;;;;;;;;524531;28;1345;-91
2022/06/20 01:16:26;;;;;;;28.25;16.50;;;;;;;;;;524487;28;1409;-91
2022/06/20 01:16:44;;;;;;;25.55;14.30;;;;;;;;;;524742;28;1454;-91
2022/06/20 01:17:04;;;;;;;20.27;13.15;;;;;;;;;;522226;28;1229;-91
2022/06/20 01:17:25;;;;;;;21.23;13.57;;;;;;;;;;520271;28;1261;-91
2022/06/20 01:17:51;;;;;;;24.20;14.48;;;;;;;;;;521259;28;1593;-92
2022/06/20 01:18:17;;;;;;;23.95;14.45;;;;;;;;;;519285;28;1546;-90
2022/06/20 01:18:34;;;;;;;26.35;14.60;;;;;;;;;;519140;28;1629;-89
2022/06/20 01:18:50;;;;;;;23.90;14.90;;;;;;;;;;519569;28;5098;-90
2022/06/20 01:19:07;;;;;;;;;;;;;;;;;;520946;28;5067;-89
2022/06/20 01:19:44;;;;;;;26.90;16.20;;;;;;;;;;520621;28;1526;-89
2022/06/20 01:20:04;;;;;;;24.52;16.15;;;;;;;;;;521830;28;1445;-89
2022/06/20 01:20:31;;;;;;;28.33;16.92;;;;;;;;;;522673;28;1318;-90
2022/06/20 01:20:48;;;;;;;43.88;18.42;;;;;;;;;;525650;28;1483;-90
2022/06/20 01:21:09;;;;;;;41.00;17.90;;;;;;;;;;526496;28;1231;-90
2022/06/20 01:21:31;;;;;;;34.65;16.17;;;;;;;;;;524289;28;1720;-89
2022/06/20 01:21:46;;;;;;;37.10;16.83;;;;;;;;;;522411;28;1307;-89
2022/06/20 01:22:17;;;;;;;34.43;16.73;;;;;;;;;;524326;28;875;-89
2022/06/20 01:22:51;;;;;;;34.58;17.30;;;;;;;;;;521457;28;1518;-89
2022/06/20 01:23:47;;;;;;;42.47;20.07;;;;;;;;;;522035;28;5061;-90
2022/06/20 01:24:29;;;;;;;41.70;21.05;;;;;;;;;;515985;28;1450;-90
2022/06/20 01:25:07;;;;;;;28.45;17.45;;;;;;;;;;524066;28;1678;-89
2022/06/20 01:25:57;;;;;;;26.90;17.13;;;;;;;;;;524425;28;1233;-90
2022/06/20 01:26:12;;;;;;;33.63;20.05;;;;;;;;;;522273;28;1405;-89
2022/06/20 01:27:06;;;;;;;34.20;20.40;;;;;;;;;;524274;28;1716;-90
2022/06/20 01:27:36;;;;;;;28.25;19.00;;;;;;;;;;521843;28;1561;-89
2022/06/20 01:27:52;;;;;;;24.90;17.33;;;;;;;;;;519778;28;1755;-88
2022/06/20 01:28:10;;;;;;;23.35;16.98;;;;;;;;;;520326;28;1715;-89
2022/06/20 01:28:29;;;;;;;24.83;17.50;;;;;;;;;;521316;28;1200;-88
2022/06/20 01:28:48;;;;;;;25.45;17.35;;;;;;;;;;523481;28;1399;-88
2022/06/20 01:29:07;;;;;;;23.07;16.80;;;;;;;;;;522629;28;1474;-89
2022/06/20 01:29:22;;;;;;;21.55;16.55;;;;;;;;;;520187;28;1629;-88
2022/06/20 01:29:38;;;;;;;23.00;17.25;;;;;;;;;;520779;28;1434;-88
2022/06/20 01:29:53;;;;;;;26.02;17.70;;;;;;;;;;520677;28;1553;-88
2022/06/20 01:30:10;;;;;;;24.67;17.90;;;;;;;;;;520577;28;1448;-88
2022/06/20 01:30:32;;;;;;;22.30;17.75;;;;;;;;;;521455;28;1384;-87
2022/06/20 01:30:48;;;;;;;22.08;18.33;;;;;;;;;;521725;28;1368;-88
2022/06/20 01:31:04;;;;;;;23.25;19.10;;;;;;;;;;522715;28;1627;-88
2022/06/20 01:31:21;;;;;;;23.38;19.17;;;;;;;;;;520861;28;1476;-88
2022/06/20 01:31:47;;;;;;;22.52;19.55;;;;;;;;;;522271;28;1354;-88
2022/06/20 01:32:05;;;;;;;29.23;21.10;;;;;;;;;;522121;28;1448;-88
2022/06/20 01:32:21;;;;;;;32.65;21.65;;;;;;;;;;520100;28;5061;-88
2022/06/20 01:32:37;;;;;;;36.90;23.00;;;;;;;;;;521954;28;5069;-88
2022/06/20 01:32:56;;;;;;;31.65;23.00;;;;;;;;;;520177;28;1566;-88
2022/06/20 01:33:14;;;;;;;29.60;22.40;;;;;;;;;;520802;28;5068;-88
2022/06/20 01:33:31;;;;;;;34.75;23.75;;;;;;;;;;522273;28;1536;-89
2022/06/20 01:33:49;;;;;;;36.15;25.20;;;;;;;;;;522314;28;1730;-88
2022/06/20 01:34:05;;;;;;;39.33;26.38;;;;;;;;;;523429;28;1513;-88
2022/06/20 01:34:22;;;;;;;36.10;26.10;;;;;;;;;;524064;28;1580;-88
2022/06/20 01:34:37;;;;;;;31.43;24.67;;;;;;;;;;526265;28;1571;-88
2022/06/20 01:34:53;;;;;;;33.03;24.53;;;;;;;;;;526089;28;1609;-87
2022/06/20 01:35:11;;;;;;;34.53;25.38;;;;;;;;;;523882;28;1295;-88
2022/06/20 01:37:29;;;;;;;39.10;26.95;;;;;;;;;;529166;27;5054;-87
2022/06/20 01:37:46;;;;;;;36.93;26.07;;;;;;;;;;529714;27;1587;-88
2022/06/20 01:38:04;;;;;;;39.55;27.90;;;;;;;;;;528735;27;1551;-87
2022/06/20 01:38:20;;;;;;;38.20;28.05;;;;;;;;;;525526;28;1500;-87
2022/06/20 01:38:37;;;;;;;38.30;27.33;;;;;;;;;;524057;28;1335;-87
2022/06/20 01:38:53;;;;;;;39.50;26.80;;;;;;;;;;524077;28;1267;-86
2022/06/20 01:39:08;;;;;;;41.53;27.95;;;;;;;;;;522448;28;1610;-86
2022/06/20 01:39:24;;;;;;;40.10;28.20;;;;;;;;;;521550;28;1179;-86
2022/06/20 01:39:40;;;;;;;39.40;28.45;;;;;;;;;;521910;28;1802;-86
2022/06/20 01:40:01;;;;;;;40.80;29.42;;;;;;;;;;521295;28;1426;-87
2022/06/20 01:40:17;;;;;;;44.25;30.20;;;;;;;;;;522121;28;1017;-87
2022/06/20 01:40:34;;;;;;;49.30;31.50;;;;;;;;;;523283;28;1504;-86
2022/06/20 01:42:21;;;;;;;39.93;27.07;;;;;;;;;;527042;28;1423;-86
2022/06/20 01:42:38;;;;;;;39.15;24.80;;;;;;;;;;524189;28;1675;-85
2022/06/20 01:42:53;;;;;;;35.30;24.10;;;;;;;;;;525952;28;1316;-86
2022/06/20 01:43:09;;;;;;;31.43;22.60;;;;;;;;;;523525;28;1568;-87
2022/06/20 01:43:24;;;;;;;31.23;21.75;;;;;;;;;;524010;28;1425;-86
2022/06/20 01:43:40;;;;;;;30.17;22.03;;;;;;;;;;524305;28;1385;-86
2022/06/20 01:43:59;;;;;;;29.83;22.05;;;;;;;;;;523983;28;1437;-86
2022/06/20 01:44:17;;;;;;;35.38;23.42;;;;;;;;;;523562;28;1486;-85
2022/06/20 01:44:37;;;;;;;33.35;22.92;;;;;;;;;;524247;28;1301;-86
2022/06/20 01:45:04;;;;;;;32.40;21.60;;;;;;;;;;524512;28;1367;-86
2022/06/20 01:45:57;;;;;;;32.25;21.02;;;;;;;;;;522261;28;1510;-86
2022/06/20 01:46:14;;;;;;;37.20;21.77;;;;;;;;;;525236;28;1405;-86
2022/06/20 01:46:31;;;;;;;33.53;21.10;;;;;;;;;;524722;28;1497;-85
2022/06/20 01:46:46;;;;;;;33.15;21.10;;;;;;;;;;524017;28;1735;-85
2022/06/20 01:47:02;;;;;;;32.03;21.40;;;;;;;;;;523946;28;1656;-85
2022/06/20 01:47:18;;;;;;;28.33;20.70;;;;;;;;;;524711;28;1560;-85
2022/06/20 01:47:33;;;;;;;27.60;20.48;;;;;;;;;;524836;28;1706;-86
2022/06/20 01:47:48;;;;;;;30.63;21.40;;;;;;;;;;522101;28;1371;-86
2022/06/20 01:48:08;;;;;;;31.40;21.30;;;;;;;;;;522734;28;1286;-85
2022/06/20 01:48:31;;;;;;;26.35;20.13;;;;;;;;;;526046;28;1471;-86
2022/06/20 01:48:54;;;;;;;26.38;18.55;;;;;;;;;;524324;28;1570;-86
2022/06/20 01:49:14;;;;;;;25.15;17.80;;;;;;;;;;522642;28;1535;-86
2022/06/20 01:49:31;;;;;;;26.95;18.67;;;;;;;;;;521617;28;1502;-85
2022/06/20 01:49:51;;;;;;;24.40;17.80;;;;;;;;;;523631;28;1361;-85
2022/06/20 01:50:07;;;;;;;28.10;17.83;;;;;;;;;;524520;28;1538;-85
2022/06/20 01:50:22;;;;;;;31.45;19.48;;;;;;;;;;524202;28;1368;-85
2022/06/20 01:50:41;;;;;;;31.38;19.55;;;;;;;;;;525336;28;1482;-85
2022/06/20 01:50:57;;;;;;;30.13;19.25;;;;;;;;;;524607;28;1593;-85
2022/06/20 01:51:20;;;;;;;32.75;19.58;;;;;;;;;;525086;28;1544;-85
2022/06/20 01:51:59;;;;;;;26.67;19.30;;;;;;;;;;522406;28;1670;-85
2022/06/20 01:52:27;;;;;;;26.42;19.42;;;;;;;;;;522571;28;1536;-85
2022/06/20 01:52:44;;;;;;;29.35;20.02;;;;;;;;;;523699;28;1179;-85
2022/06/20 01:53:02;;;;;;;26.50;19.45;;;;;;;;;;522120;28;1544;-85
2022/06/20 01:53:23;;;;;;;24.60;18.38;;;;;;;;;;520850;28;1814;-85
2022/06/20 01:53:38;;;;;;;22.92;17.67;;;;;;;;;;521019;28;1697;-85
2022/06/20 01:53:55;;;;;;;22.77;17.53;;;;;;;;;;520467;28;1426;-85
2022/06/20 01:54:13;;;;;;;23.33;17.88;;;;;;;;;;520997;28;1526;-85
2022/06/20 01:54:32;;;;;;;25.05;17.83;;;;;;;;;;519886;28;1414;-85
2022/06/20 01:55:06;;;;;;;27.67;18.90;;;;;;;;;;522408;28;1686;-85
2022/06/20 01:55:25;;;;;;;29.70;19.27;;;;;;;;;;523917;28;1965;-85
2022/06/20 01:55:42;;;;;;;25.88;17.77;;;;;;;;;;524149;28;1583;-85
2022/06/20 01:55:58;;;;;;;25.45;17.38;;;;;;;;;;525744;28;1246;-85
2022/06/20 01:56:15;;;;;;;28.27;18.15;;;;;;;;;;522792;28;1480;-85
2022/06/20 01:56:31;;;;;;;26.15;18.17;;;;;;;;;;523651;28;1520;-85
2022/06/20 01:56:48;;;;;;;24.40;18.05;;;;;;;;;;524368;28;1352;-85
2022/06/20 01:57:07;;;;;;;24.80;18.65;;;;;;;;;;522176;28;1561;-85
2022/06/20 01:57:23;;;;;;;30.05;19.77;;;;;;;;;;523273;28;1413;-85
2022/06/20 01:57:42;;;;;;;30.53;20.37;;;;;;;;;;522188;28;1136;-85
2022/06/20 01:58:09;;;;;;;30.10;21.08;;;;;;;;;;522639;28;1271;-85
2022/06/20 01:58:35;;;;;;;27.75;18.73;;;;;;;;;;522342;28;1644;-85
2022/06/20 01:59:00;;;;;;;28.98;19.05;;;;;;;;;;523558;28;876;-85
2022/06/20 01:59:53;;;;;;;27.42;19.40;;;;;;;;;;523848;28;1508;-85
2022/06/20 02:00:19;;;;;;;29.08;20.88;;;;;;;;;;528316;27;1532;-85
2022/06/20 02:00:35;;;;;;;28.23;20.50;;;;;;;;;;525414;28;1715;-85
2022/06/20 02:00:50;;;;;;;27.63;20.00;;;;;;;;;;524150;28;1422;-85
2022/06/20 02:01:07;;;;;;;26.57;19.13;;;;;;;;;;523760;28;828;-85
2022/06/20 02:01:23;;;;;;;26.77;19.25;;;;;;;;;;525294;28;1415;-85
2022/06/20 02:01:39;;;;;;;26.75;18.92;;;;;;;;;;520174;28;1133;-85
2022/06/20 02:01:56;;;;;;;26.15;18.80;;;;;;;;;;518215;28;1291;-85
2022/06/20 02:02:12;;;;;;;24.85;19.00;;;;;;;;;;518155;28;1198;-85
2022/06/20 02:02:30;;;;;;;26.20;19.83;;;;;;;;;;520126;28;1266;-85
2022/06/20 02:02:49;;;;;;;30.38;19.83;;;;;;;;;;522036;28;1413;-85
2022/06/20 02:03:11;;;;;;;28.42;19.17;;;;;;;;;;519331;28;1616;-84
2022/06/20 02:03:30;;;;;;;25.40;18.83;;;;;;;;;;520103;28;1423;-84
2022/06/20 02:03:47;;;;;;;24.08;18.63;;;;;;;;;;519156;28;992;-84
2022/06/20 02:04:12;;;;;;;23.50;18.75;;;;;;;;;;519709;28;1486;-84
2022/06/20 02:04:31;;;;;;;23.65;18.65;;;;;;;;;;521373;28;1765;-85
2022/06/20 02:04:47;;;;;;;27.00;18.60;;;;;;;;;;524192;28;1731;-84
2022/06/20 02:05:05;;;;;;;27.13;19.00;;;;;;;;;;524153;28;935;-84
2022/06/20 02:05:29;;;;;;;26.27;19.27;;;;;;;;;;523527;28;1508;-85
2022/06/20 02:05:47;;;;;;;29.05;19.40;;;;;;;;;;524942;28;1207;-85
2022/06/20 02:06:03;;;;;;;26.10;18.08;;;;;;;;;;527785;28;1639;-84